New Providence, Pennsylvania
Current Conditions -  °F | °C
As of 12:53 AM on Wednesday 22 Oct 2014 (Local Time) from KLNS Reporting Station
Overcast Overcast  
Wind Chill: 54°   Ceiling: 2600
Heat Index: 54°   Visibility: 10mi
Dew Point: 48°   Wind: 5mph
Humidity: 80%   Direction: 340°NNW
Pressure: 29.89"   Gusts: NA
Location:  39.93°N, 76.2°W
Report Text: KLNS 220453Z AUTO 34004KT 10SM FEW021 BKN026 OVC042 12/09 A2989 RMK AO2 LTG DSNT SE SLP121 T01220089 401780089
Loading
Personal Weather Stations






























Interactive Weather Map
Tropical Storm Tracking
New forecast layout! Learn more

10-Day Weather Forecast

Advertisements
Track Severe Weather on mobile